Time;durP1;ratioP1;P1;durP2;ratioP2;P2;SDS_P1;SDS_P2;PMS_P1;PMS_P2;Temp;Humidity;BMP_temperature;BMP_pressure;BME280_temperature;BME280_humidity;BME280_pressure;Samples;Min_cycle;Max_cycle;Signal;HPM_P1;HPM_P2
2020/12/22 00:01:05;;;;;;;27.10;14.77;;;5.30;99.90;;;;;;4994755;28;20042;-81
2020/12/22 00:03:31;;;;;;;25.25;14.70;;;5.50;99.90;;;;;;5012033;28;20018;-85
2020/12/22 00:05:56;;;;;;;27.83;15.65;;;5.60;99.90;;;;;;5012452;28;20036;-85
2020/12/22 00:08:22;;;;;;;25.75;14.80;;;5.40;99.90;;;;;;4994927;28;20458;-85
2020/12/22 00:10:48;;;;;;;25.55;14.55;;;5.20;99.90;;;;;;4994330;28;20038;-84
2020/12/22 00:13:14;;;;;;;26.38;15.23;;;4.90;99.90;;;;;;4994897;28;20022;-85
2020/12/22 00:15:39;;;;;;;26.63;15.40;;;4.90;99.90;;;;;;4994541;28;20046;-85
2020/12/22 00:18:05;;;;;;;28.05;14.80;;;4.90;99.90;;;;;;4994943;28;20025;-85
2020/12/22 00:20:35;;;;;;;24.23;14.85;;;4.80;99.90;;;;;;4994719;28;20038;-85
2020/12/22 00:23:07;;;;;;;24.10;14.63;;;4.90;99.90;;;;;;4995187;28;20025;-86
2020/12/22 00:25:42;;;;;;;27.13;15.23;;;4.80;99.90;;;;;;4994641;28;20026;-86
2020/12/22 00:28:18;;;;;;;26.55;15.73;;;4.80;99.90;;;;;;4994601;28;20033;-85
2020/12/22 00:30:45;;;;;;;26.50;14.38;;;4.90;99.90;;;;;;4994546;28;20030;-83
2020/12/22 00:33:13;;;;;;;24.95;14.60;;;5.00;99.90;;;;;;4994002;28;20034;-83
2020/12/22 00:36:01;;;;;;;28.63;15.77;;;5.10;99.90;;;;;;5012237;28;20025;-87
2020/12/22 00:38:46;;;;;;;26.20;14.32;;;5.10;99.90;;;;;;4994450;28;20061;-83
2020/12/22 00:41:15;;;;;;;24.45;14.93;;;5.20;99.90;;;;;;4994532;28;20112;-88
2020/12/22 00:43:55;;;;;;;26.20;14.82;;;5.00;99.90;;;;;;4994775;28;20033;-87
2020/12/22 00:46:36;;;;;;;26.73;14.50;;;5.00;99.90;;;;;;4994983;28;20040;-85
2020/12/22 00:49:25;;;;;;;25.00;14.70;;;4.90;99.90;;;;;;4994334;28;20473;-84
2020/12/22 00:54:39;;;;;;;24.63;14.75;;;4.80;99.90;;;;;;5086690;23;20054;-84
2020/12/22 00:57:04;;;;;;;25.08;14.10;;;4.90;99.90;;;;;;4993815;28;20021;-83
2020/12/22 00:59:36;;;;;;;25.83;14.35;;;4.80;99.90;;;;;;5011532;28;20022;-84
2020/12/22 01:02:06;;;;;;;22.73;13.68;;;4.90;99.90;;;;;;5011522;28;20037;-83
2020/12/22 01:04:32;;;;;;;23.35;14.75;;;4.80;99.90;;;;;;4994049;28;20049;-83
2020/12/22 01:06:58;;;;;;;26.15;14.38;;;4.80;99.90;;;;;;5011436;28;20030;-84
2020/12/22 01:09:24;;;;;;;21.80;14.13;;;4.90;99.90;;;;;;5011673;28;20097;-82
2020/12/22 01:11:49;;;;;;;26.20;14.88;;;4.90;99.90;;;;;;4997193;28;20021;-84
2020/12/22 01:14:15;;;;;;;29.33;15.98;;;4.80;99.90;;;;;;5015279;28;20037;-85
2020/12/22 01:16:44;;;;;;;25.65;15.18;;;4.90;99.90;;;;;;5014966;28;20022;-82
2020/12/22 01:19:09;;;;;;;25.52;15.05;;;4.80;99.90;;;;;;5014898;28;20061;-83
2020/12/22 01:21:35;;;;;;;27.38;15.38;;;4.80;99.90;;;;;;4996667;28;20068;-81
2020/12/22 01:24:04;;;;;;;26.65;15.52;;;4.70;99.90;;;;;;4996761;28;20094;-83
2020/12/22 01:26:30;;;;;;;24.63;14.40;;;4.80;99.90;;;;;;4996776;28;20397;-83
2020/12/22 01:28:56;;;;;;;28.02;16.25;;;5.10;99.90;;;;;;5014434;28;20397;-85
2020/12/22 01:31:24;;;;;;;24.02;15.00;;;4.90;99.90;;;;;;4997049;28;20554;-84
2020/12/22 01:33:50;;;;;;;25.52;15.23;;;4.90;99.90;;;;;;5014403;28;20044;-84
2020/12/22 01:36:16;;;;;;;27.60;14.98;;;4.90;99.90;;;;;;5014382;28;20025;-85
2020/12/22 01:38:42;;;;;;;29.33;16.20;;;5.00;99.90;;;;;;4997339;28;20440;-86
2020/12/22 01:41:08;;;;;;;26.27;14.93;;;4.90;99.90;;;;;;4997108;28;20034;-85
2020/12/22 01:43:34;;;;;;;22.67;14.15;;;5.00;99.90;;;;;;5015087;28;20097;-86
2020/12/22 01:46:00;;;;;;;26.75;15.95;;;5.10;99.90;;;;;;4997741;28;20073;-84
2020/12/22 01:48:27;;;;;;;26.48;15.68;;;5.00;99.90;;;;;;4996880;28;20045;-83
2020/12/22 01:50:53;;;;;;;27.38;14.10;;;5.10;99.90;;;;;;5012682;28;20398;-82
2020/12/22 01:53:19;;;;;;;24.25;13.88;;;5.20;99.90;;;;;;4995668;28;20502;-82
2020/12/22 01:55:45;;;;;;;27.20;15.48;;;5.30;99.90;;;;;;5013958;28;20037;-84
2020/12/22 01:58:11;;;;;;;25.17;15.77;;;5.40;99.90;;;;;;4996297;28;20040;-82
2020/12/22 02:00:37;;;;;;;28.50;16.83;;;5.40;99.90;;;;;;4996253;28;20041;-83
2020/12/22 02:03:06;;;;;;;25.58;13.85;;;5.00;99.90;;;;;;4996284;28;20026;-83
2020/12/22 02:05:33;;;;;;;25.60;16.30;;;5.00;99.90;;;;;;4996305;28;20497;-83
2020/12/22 02:07:59;;;;;;;28.00;16.52;;;4.90;99.90;;;;;;5013518;28;20030;-82
2020/12/22 02:10:26;;;;;;;28.27;15.52;;;5.10;99.90;;;;;;5013662;28;20030;-82
2020/12/22 02:12:51;;;;;;;24.73;15.00;;;5.20;99.90;;;;;;5013563;28;20104;-82
2020/12/22 02:15:17;;;;;;;26.73;15.73;;;5.00;99.90;;;;;;5013306;28;20072;-83
2020/12/22 02:17:45;;;;;;;25.63;15.52;;;4.70;99.90;;;;;;4995841;28;20576;-83
2020/12/22 02:20:12;;;;;;;26.30;15.40;;;4.80;99.90;;;;;;4995853;28;20065;-81
2020/12/22 02:22:41;;;;;;;28.33;15.80;;;4.70;99.90;;;;;;4999913;28;20495;-83
2020/12/22 02:25:17;;;;;;;27.13;15.73;;;5.00;99.90;;;;;;5013290;28;20053;-81
2020/12/22 02:27:43;;;;;;;26.45;15.60;;;4.80;99.90;;;;;;5012040;28;20430;-81
2020/12/22 02:30:10;;;;;;;28.30;15.68;;;4.80;99.90;;;;;;5012156;28;20390;-84
2020/12/22 02:32:36;;;;;;;26.50;16.77;;;4.90;99.90;;;;;;5011994;28;20474;-81
2020/12/22 02:35:03;;;;;;;26.35;15.10;;;5.20;99.90;;;;;;5011913;28;20034;-83
2020/12/22 02:37:30;;;;;;;25.70;14.18;;;5.30;99.90;;;;;;5011651;28;20044;-84
2020/12/22 02:39:55;;;;;;;27.02;14.23;;;5.40;99.90;;;;;;5012072;28;20054;-84
2020/12/22 02:42:22;;;;;;;25.40;14.73;;;5.40;99.90;;;;;;5013520;28;20080;-83
2020/12/22 02:44:48;;;;;;;30.25;15.45;;;5.10;99.90;;;;;;5012921;28;20061;-81
2020/12/22 02:47:15;;;;;;;29.20;15.85;;;5.10;99.90;;;;;;5011497;28;20474;-86
2020/12/22 02:49:42;;;;;;;28.20;15.30;;;5.20;99.90;;;;;;5012186;28;20026;-85
2020/12/22 02:52:08;;;;;;;28.63;15.73;;;5.10;99.90;;;;;;5011950;28;20030;-84
2020/12/22 02:54:38;;;;;;;22.85;14.85;;;5.00;99.90;;;;;;5011440;28;20486;-83
2020/12/22 02:57:04;;;;;;;22.50;14.60;;;5.00;99.90;;;;;;5012181;28;20470;-84
2020/12/22 02:59:30;;;;;;;28.58;16.10;;;5.00;99.90;;;;;;5011626;28;20033;-84
2020/12/22 03:01:56;;;;;;;26.77;15.27;;;5.00;99.90;;;;;;5011736;28;20068;-83
2020/12/22 03:04:22;;;;;;;24.55;14.43;;;5.20;99.90;;;;;;5013133;28;20462;-84
2020/12/22 03:15:20;;;;;;;24.73;15.57;;;5.30;99.90;;;;;;5013355;28;20091;-86
2020/12/22 03:17:46;;;;;;;27.73;14.70;;;5.10;99.90;;;;;;4995400;28;20026;-85
2020/12/22 03:20:16;;;;;;;22.35;14.43;;;5.20;99.90;;;;;;5012463;28;20041;-85
2020/12/22 03:22:42;;;;;;;24.70;13.65;;;5.30;99.90;;;;;;4994938;28;20018;-84
2020/12/22 03:25:26;;;;;;;24.38;15.63;;;5.20;99.90;;;;;;4994945;28;20489;-84
2020/12/22 03:27:58;;;;;;;25.65;14.63;;;5.40;99.90;;;;;;4994730;28;20056;-84
2020/12/22 03:30:25;;;;;;;25.48;15.00;;;5.40;99.90;;;;;;5012666;28;20025;-86
2020/12/22 03:32:54;;;;;;;27.85;15.25;;;5.40;99.90;;;;;;5012471;28;20030;-85
2020/12/22 03:35:20;;;;;;;22.77;14.38;;;5.20;99.90;;;;;;4995348;28;20386;-86
2020/12/22 03:38:07;;;;;;;23.70;15.02;;;5.10;99.90;;;;;;5012476;28;20030;-84
2020/12/22 03:41:10;;;;;;;23.80;14.52;;;5.20;99.90;;;;;;4995048;28;20394;-87
2020/12/22 03:44:12;;;;;;;25.02;13.95;;;5.30;99.90;;;;;;4995141;28;20044;-85
2020/12/22 03:46:39;;;;;;;24.17;14.77;;;5.30;99.90;;;;;;4994890;28;20389;-84
2020/12/22 03:49:42;;;;;;;27.30;14.85;;;5.30;99.90;;;;;;4994270;28;20127;-84
2020/12/22 04:16:46;;;;;;;21.73;13.13;;;5.50;99.90;;;;;;4913842;29;20027;-85
2020/12/22 04:29:50;;;;;;;22.77;13.32;;;5.40;99.90;;;;;;5451774;23;20057;-84
2020/12/22 04:32:16;;;;;;;22.05;13.43;;;5.40;99.90;;;;;;4994210;28;20029;-84
2020/12/22 04:34:42;;;;;;;25.20;13.23;;;5.10;99.90;;;;;;4994135;28;20100;-83
2020/12/22 04:37:07;;;;;;;26.10;14.43;;;5.20;99.90;;;;;;4994518;28;20396;-85
2020/12/22 04:39:33;;;;;;;23.88;14.32;;;5.00;99.90;;;;;;5011868;28;20398;-85
2020/12/22 04:42:24;;;;;;;25.23;14.57;;;5.20;99.90;;;;;;5203306;23;20467;-84
2020/12/22 04:53:31;;;;;;;21.55;13.50;;;5.10;99.90;;;;;;5390729;23;20034;-84
2020/12/22 04:55:57;;;;;;;25.23;14.48;;;4.70;99.90;;;;;;4998166;28;20022;-83
2020/12/22 04:58:24;;;;;;;23.02;13.85;;;4.90;99.90;;;;;;4998233;28;20028;-85
2020/12/22 05:00:50;;;;;;;24.45;14.50;;;5.00;99.90;;;;;;4998075;28;20468;-84
2020/12/22 05:03:21;;;;;;;23.33;14.07;;;5.10;99.90;;;;;;4997126;28;20025;-85
2020/12/22 05:05:49;;;;;;;;;;;5.10;99.90;;;;;;5014656;28;20034;-82
2020/12/22 05:08:15;;;;;;;23.75;13.25;;;5.10;99.90;;;;;;4997699;28;20004;-85
2020/12/22 05:10:45;;;;;;;23.30;14.35;;;5.10;99.90;;;;;;5015242;28;20362;-84
2020/12/22 05:28:36;;;;;;;26.10;15.02;;;5.00;99.90;;;;;;6047493;23;20259;-82
2020/12/22 05:31:02;;;;;;;25.65;14.48;;;5.00;99.90;;;;;;4997207;28;20034;-81
2020/12/22 05:33:27;;;;;;;28.40;15.88;;;5.20;99.90;;;;;;5014237;28;20131;-82
2020/12/22 05:35:56;;;;;;;23.85;14.77;;;5.20;99.90;;;;;;5014361;28;20095;-83
2020/12/22 05:38:25;;;;;;;26.42;14.55;;;5.20;99.90;;;;;;5014271;28;20075;-85
2020/12/22 05:40:52;;;;;;;25.83;14.32;;;5.20;99.90;;;;;;4997235;28;20030;-86
2020/12/22 05:43:18;;;;;;;28.00;14.35;;;5.30;99.90;;;;;;4997206;28;20034;-86
2020/12/22 05:45:45;;;;;;;26.95;15.45;;;5.30;99.90;;;;;;4996851;28;20026;-84
2020/12/22 05:48:15;;;;;;;26.77;16.42;;;5.30;99.90;;;;;;4996907;28;20112;-86
2020/12/22 05:50:51;;;;;;;23.37;13.97;;;5.30;99.90;;;;;;4997071;28;20030;-87
2020/12/22 05:53:23;;;;;;;25.20;13.88;;;5.10;99.90;;;;;;4996586;28;20084;-85
2020/12/22 05:55:49;;;;;;;25.73;14.45;;;4.70;99.90;;;;;;4996670;28;20048;-84
2020/12/22 05:58:15;;;;;;;24.55;14.45;;;4.80;99.90;;;;;;4996714;28;20414;-85
2020/12/22 06:00:46;;;;;;;25.73;13.63;;;4.60;99.90;;;;;;5014242;28;20034;-86
2020/12/22 06:03:12;;;;;;;;;;;4.70;99.90;;;;;;4997517;28;20117;-87
2020/12/22 06:05:43;;;;;;;22.42;13.05;;;4.90;99.90;;;;;;4996785;28;20284;-85
2020/12/22 06:08:10;;;;;;;23.95;13.57;;;5.00;99.90;;;;;;5014347;28;20400;-83
2020/12/22 06:10:37;;;;;;;26.92;14.98;;;5.10;99.90;;;;;;4996531;28;20037;-84
2020/12/22 06:13:05;;;;;;;27.85;14.10;;;5.00;99.90;;;;;;5013877;28;20387;-84
2020/12/22 06:15:32;;;;;;;21.15;13.30;;;5.10;99.90;;;;;;5013764;28;20033;-85
2020/12/22 06:21:29;;;;;;;51.55;25.42;;;5.30;99.90;;;;;;5105030;23;20020;-87
2020/12/22 06:23:58;;;;;;;25.80;14.07;;;5.30;99.90;;;;;;4975746;28;20034;-82
2020/12/22 06:26:30;;;;;;;25.13;14.98;;;5.50;99.90;;;;;;4976395;28;20113;-84
2020/12/22 06:28:56;;;;;;;24.50;14.10;;;5.60;99.90;;;;;;4993891;28;20026;-85
2020/12/22 06:31:24;;;;;;;22.45;13.45;;;5.40;99.90;;;;;;4975815;28;20041;-83
2020/12/22 06:33:51;;;;;;;22.40;13.10;;;5.40;99.90;;;;;;4976356;28;20018;-83
2020/12/22 06:36:17;;;;;;;25.73;13.13;;;5.50;99.90;;;;;;4994253;28;20381;-85
2020/12/22 06:38:50;;;;;;;24.20;13.02;;;5.60;99.90;;;;;;4993657;28;20037;-85
2020/12/22 06:41:41;;;;;;;24.40;13.77;;;5.70;99.90;;;;;;4994069;28;20038;-84
2020/12/22 06:44:20;;;;;;;26.00;14.55;;;5.70;99.90;;;;;;4993498;28;20389;-83
2020/12/22 06:46:51;;;;;;;25.15;14.20;;;5.80;99.90;;;;;;4993515;28;20034;-83
2020/12/22 06:49:17;;;;;;;22.48;14.85;;;5.90;99.90;;;;;;4992844;28;20022;-85
2020/12/22 06:51:43;;;;;;;28.08;15.30;;;5.90;99.90;;;;;;4975631;28;20037;-84
2020/12/22 06:54:20;;;;;;;26.20;14.30;;;6.00;99.90;;;;;;4976223;28;20022;-87
2020/12/22 06:56:49;;;;;;;23.48;14.93;;;5.90;99.90;;;;;;4974711;28;20027;-87
2020/12/22 06:59:37;;;;;;;26.92;14.80;;;5.80;99.90;;;;;;5001288;28;20026;-86
2020/12/22 07:02:05;;;;;;;22.73;13.13;;;5.60;99.90;;;;;;5003701;28;20038;-87
2020/12/22 07:04:40;;;;;;;21.70;13.93;;;5.10;99.90;;;;;;4976395;28;20029;-86
2020/12/22 07:12:33;;;;;;;23.15;13.65;;;5.50;99.90;;;;;;4994691;28;20060;-86
2020/12/22 07:15:02;;;;;;;21.50;12.52;;;5.40;99.90;;;;;;4932518;29;20040;-85
2020/12/22 07:18:03;;;;;;;16.35;10.88;;;5.60;99.90;;;;;;4980409;28;20410;-87
2020/12/22 07:23:55;;;;;;;18.35;11.85;;;5.30;99.90;;;;;;5063135;23;20061;-87
2020/12/22 07:27:00;;;;;;;16.13;9.82;;;5.30;99.90;;;;;;5018828;28;20032;-85
2020/12/22 07:29:29;;;;;;;18.50;11.05;;;5.30;99.90;;;;;;4977251;28;20063;-86
2020/12/22 07:34:50;;;;;;;17.45;10.60;;;5.10;99.90;;;;;;5015852;28;20033;-86
2020/12/22 07:38:03;;;;;;;18.90;12.00;;;5.10;99.90;;;;;;4995141;28;20033;-87
2020/12/22 07:44:37;;;;;;;17.67;11.82;;;5.30;99.90;;;;;;5012162;28;20028;-85
2020/12/22 07:50:16;;;;;;;21.25;12.43;;;5.50;99.90;;;;;;4993715;28;20060;-89
2020/12/22 07:53:01;;;;;;;16.95;11.82;;;5.40;99.90;;;;;;4976281;28;20557;-86
2020/12/22 07:56:05;;;;;;;18.27;11.93;;;5.40;99.90;;;;;;4994649;28;20098;-87
2020/12/22 07:58:35;;;;;;;22.00;12.38;;;5.50;99.90;;;;;;4994271;28;20086;-85
2020/12/22 08:01:04;;;;;;;20.27;12.15;;;5.50;99.90;;;;;;4994211;28;20038;-84
2020/12/22 08:03:30;;;;;;;17.50;11.52;;;5.60;99.90;;;;;;5000777;28;20033;-85
2020/12/22 08:06:35;;;;;;;19.70;11.95;;;5.60;99.90;;;;;;5013628;28;20060;-87
2020/12/22 08:09:00;;;;;;;19.48;11.85;;;5.50;99.90;;;;;;4995910;28;20170;-87
2020/12/22 08:11:31;;;;;;;18.67;10.93;;;5.70;99.90;;;;;;5005401;28;20466;-86
2020/12/22 08:13:57;;;;;;;18.38;10.82;;;6.00;99.90;;;;;;4995756;28;20018;-87
2020/12/22 08:16:28;;;;;;;17.08;10.88;;;5.80;99.90;;;;;;4995716;28;20238;-89
2020/12/22 08:18:54;;;;;;;19.95;11.23;;;5.90;99.90;;;;;;5003808;28;20080;-88
2020/12/22 08:24:27;;;;;;;18.15;11.15;;;6.00;99.90;;;;;;5011955;28;20057;-88
2020/12/22 08:26:55;;;;;;;16.40;11.43;;;6.10;99.90;;;;;;5005495;28;20795;-88
2020/12/22 08:29:21;;;;;;;16.90;11.15;;;6.40;99.90;;;;;;5007468;28;20018;-85
2020/12/22 08:31:50;;;;;;;17.98;12.10;;;6.70;99.90;;;;;;5031694;28;20087;-85
2020/12/22 08:34:17;;;;;;;18.23;11.35;;;6.70;99.90;;;;;;5034870;28;20053;-85
2020/12/22 08:36:45;;;;;;;24.35;12.20;;;6.50;99.90;;;;;;5036064;28;20075;-85
2020/12/22 08:42:26;;;;;;;23.65;12.90;;;6.40;99.90;;;;;;4938486;28;20034;-87
2020/12/22 08:44:53;;;;;;;21.00;13.57;;;6.20;99.90;;;;;;5001853;28;20040;-86
2020/12/22 08:47:20;;;;;;;19.45;12.43;;;6.60;99.90;;;;;;5014578;28;20022;-87
2020/12/22 08:53:13;;;;;;;21.95;13.43;;;6.70;99.90;;;;;;5014610;28;20515;-83
2020/12/22 08:56:07;;;;;;;19.70;11.20;;;6.80;99.90;;;;;;5010952;28;20045;-87
2020/12/22 08:59:23;;;;;;;20.60;12.05;;;6.70;99.90;;;;;;4994635;28;20080;-86
2020/12/22 09:01:52;;;;;;;25.00;13.82;;;6.40;99.90;;;;;;5010314;28;20046;-86
2020/12/22 09:11:39;;;;;;;24.75;13.68;;;7.80;99.90;;;;;;4925933;29;20126;-83
2020/12/22 09:17:42;;;;;;;23.30;14.40;;;8.20;99.90;;;;;;4993153;28;20780;-83
2020/12/22 09:20:08;;;;;;;21.33;12.57;;;8.20;99.90;;;;;;4976584;28;20037;-90
2020/12/22 09:22:42;;;;;;;24.23;13.65;;;8.40;99.90;;;;;;4995265;28;20038;-85
2020/12/22 09:25:08;;;;;;;23.25;14.20;;;8.40;99.90;;;;;;5015282;28;20064;-83
2020/12/22 09:27:56;;;;;;;23.98;12.93;;;8.40;99.90;;;;;;4997878;28;20132;-84
2020/12/22 09:30:21;;;;;;;24.48;13.45;;;8.40;99.90;;;;;;5092674;23;20350;-86
2020/12/22 09:33:49;;;;;;;22.35;12.82;;;8.40;99.90;;;;;;4998991;28;20037;-84
2020/12/22 09:36:30;;;;;;;29.30;12.98;;;8.20;99.90;;;;;;5031077;28;20053;-84
2020/12/22 09:39:13;;;;;;;23.35;13.65;;;8.40;99.90;;;;;;5019480;28;20029;-82
2020/12/22 09:42:03;;;;;;;19.80;12.68;;;8.40;99.90;;;;;;5032285;28;20547;-83
2020/12/22 09:44:42;;;;;;;22.50;14.30;;;8.50;99.90;;;;;;5008263;28;20041;-84
2020/12/22 09:47:58;;;;;;;25.05;13.93;;;8.70;99.90;;;;;;5015407;28;20033;-82
2020/12/22 09:50:24;;;;;;;21.70;13.50;;;8.70;99.90;;;;;;5015569;28;20029;-85
2020/12/22 09:57:11;;;;;;;26.08;14.63;;;8.60;99.90;;;;;;4952650;29;20123;-84
2020/12/22 09:59:37;;;;;;;23.95;13.75;;;8.60;99.90;;;;;;4936526;29;20016;-84
2020/12/22 10:02:03;;;;;;;25.58;13.82;;;8.20;99.90;;;;;;4998215;28;20095;-85
2020/12/22 10:04:28;;;;;;;27.83;13.52;;;8.00;99.90;;;;;;5014025;28;20080;-86
2020/12/22 10:07:09;;;;;;;29.05;14.43;;;8.10;99.90;;;;;;5012416;28;20060;-85
2020/12/22 10:09:35;;;;;;;;;;;8.30;99.90;;;;;;4996197;28;20367;-85
2020/12/22 10:12:04;;;;;;;21.35;12.35;;;8.00;99.90;;;;;;5009409;28;20357;-87
2020/12/22 10:14:31;;;;;;;22.02;13.80;;;7.80;99.90;;;;;;5015187;28;20022;-85
2020/12/22 10:17:00;;;;;;;21.83;13.25;;;7.80;99.90;;;;;;5033263;28;20030;-84
2020/12/22 10:19:25;;;;;;;21.77;14.02;;;7.90;99.90;;;;;;5030017;28;20033;-82
2020/12/22 10:21:54;;;;;;;23.73;13.30;;;8.10;99.90;;;;;;5016018;28;20385;-82
2020/12/22 10:24:19;;;;;;;21.90;13.80;;;8.30;99.90;;;;;;5004118;28;20018;-83
2020/12/22 10:26:45;;;;;;;23.23;13.38;;;8.20;99.90;;;;;;5014362;28;20146;-91
2020/12/22 10:32:33;;;;;;;22.23;13.57;;;8.20;99.90;;;;;;5025969;23;20397;-83
2020/12/22 10:35:01;;;;;;;20.85;13.15;;;8.40;99.90;;;;;;5013201;28;20477;-83
2020/12/22 10:37:27;;;;;;;23.25;13.82;;;8.50;99.90;;;;;;4995890;28;20029;-89
2020/12/22 10:39:55;;;;;;;24.67;13.93;;;8.60;99.90;;;;;;5013379;28;20032;-84
2020/12/22 10:42:21;;;;;;;20.70;14.15;;;8.80;99.90;;;;;;4996161;28;20119;-83
2020/12/22 10:45:02;;;;;;;27.33;15.20;;;8.80;99.90;;;;;;5000781;28;20060;-90
2020/12/22 10:47:31;;;;;;;25.55;15.02;;;8.90;99.90;;;;;;5010030;28;20049;-88
2020/12/22 10:49:56;;;;;;;25.35;14.27;;;8.80;99.90;;;;;;4990755;28;20391;-89
2020/12/22 10:52:22;;;;;;;27.15;15.18;;;8.80;99.90;;;;;;4976758;28;20501;-83
2020/12/22 10:54:48;;;;;;;23.70;14.60;;;8.80;99.90;;;;;;4981140;28;20026;-87
2020/12/22 10:59:49;;;;;;;23.98;14.32;;;8.80;99.90;;;;;;4996580;28;20066;-83
2020/12/22 11:02:21;;;;;;;24.40;13.95;;;8.90;99.90;;;;;;4995513;28;20030;-87
2020/12/22 11:04:47;;;;;;;25.23;14.75;;;8.90;99.90;;;;;;4994133;28;20022;-86
2020/12/22 11:07:42;;;;;;;24.35;14.45;;;8.70;99.90;;;;;;4984015;28;20030;-87
2020/12/22 11:10:06;;;;;;;23.42;14.55;;;8.90;99.90;;;;;;4999037;28;20027;-85
2020/12/22 11:12:32;;;;;;;25.08;15.30;;;8.90;99.90;;;;;;5005792;28;20027;-86
2020/12/22 11:14:59;;;;;;;34.20;16.27;;;9.00;99.90;;;;;;4996680;28;20022;-85
2020/12/22 11:17:25;;;;;;;25.92;15.82;;;8.80;99.90;;;;;;4984465;28;20100;-88
2020/12/22 11:19:52;;;;;;;28.90;16.63;;;8.70;99.90;;;;;;4960642;28;20075;-84
2020/12/22 11:22:18;;;;;;;25.67;15.75;;;8.70;99.90;;;;;;4985056;28;20390;-89
2020/12/22 11:24:45;;;;;;;26.02;15.70;;;8.80;99.90;;;;;;4964197;28;20459;-84
2020/12/22 11:27:11;;;;;;;26.38;16.25;;;8.90;99.90;;;;;;4958779;28;20057;-84
2020/12/22 11:29:36;;;;;;;25.73;16.50;;;8.80;99.90;;;;;;4983329;28;20468;-87
2020/12/22 11:32:02;;;;;;;27.77;17.00;;;8.50;99.90;;;;;;4980058;28;20510;-89
2020/12/22 11:34:28;;;;;;;31.40;17.23;;;8.60;99.90;;;;;;4966312;28;20386;-86
2020/12/22 11:36:54;;;;;;;24.73;15.48;;;8.70;99.90;;;;;;5363082;23;20042;-88
2020/12/22 11:39:21;;;;;;;28.45;17.40;;;8.70;99.90;;;;;;4982649;28;20113;-85
2020/12/22 11:41:47;;;;;;;33.28;18.05;;;8.90;99.90;;;;;;4977632;28;20036;-87
2020/12/22 11:44:13;;;;;;;28.70;17.65;;;8.90;99.90;;;;;;4986247;28;20014;-88
2020/12/22 11:46:44;;;;;;;25.65;16.63;;;9.00;99.90;;;;;;4981828;28;20080;-89
2020/12/22 11:49:15;;;;;;;25.48;16.52;;;8.80;99.90;;;;;;4982672;28;20029;-87
2020/12/22 11:51:40;;;;;;;;;;;8.80;99.90;;;;;;5001735;28;20128;-84
2020/12/22 11:54:06;;;;;;;30.80;17.60;;;8.80;99.90;;;;;;4984829;28;19937;-85
2020/12/22 11:56:32;;;;;;;26.40;16.50;;;8.80;99.90;;;;;;4979362;28;20038;-84
2020/12/22 11:58:58;;;;;;;28.27;17.85;;;8.90;99.90;;;;;;4981911;28;20023;-83
2020/12/22 12:01:29;;;;;;;29.38;17.27;;;9.10;99.90;;;;;;4984306;28;20034;-85
2020/12/22 12:03:55;;;;;;;30.30;17.40;;;9.20;99.90;;;;;;4978744;28;20398;-84
2020/12/22 12:06:23;;;;;;;29.08;17.15;;;9.00;99.90;;;;;;5001973;28;20164;-85
2020/12/22 12:08:49;;;;;;;29.13;16.73;;;9.00;99.90;;;;;;5002207;28;20017;-86
2020/12/22 12:11:15;;;;;;;27.23;16.58;;;8.90;99.90;;;;;;4997493;28;20034;-87
2020/12/22 12:13:41;;;;;;;29.65;16.98;;;8.90;99.90;;;;;;5001135;28;20022;-87
2020/12/22 12:16:06;;;;;;;30.77;15.80;;;9.00;99.90;;;;;;4981944;28;20032;-83
2020/12/22 12:18:33;;;;;;;26.27;15.95;;;9.10;99.90;;;;;;4968021;28;20018;-87
2020/12/22 12:20:59;;;;;;;24.88;15.70;;;9.40;99.90;;;;;;4982496;28;20042;-86
2020/12/22 12:23:25;;;;;;;26.67;16.50;;;9.40;99.90;;;;;;4980006;28;20105;-85
2020/12/22 12:25:51;;;;;;;24.90;15.80;;;9.50;99.90;;;;;;4956482;28;20030;-86
2020/12/22 12:28:17;;;;;;;29.63;16.48;;;9.50;99.90;;;;;;4972802;28;20038;-82
2020/12/22 12:30:43;;;;;;;30.15;16.67;;;9.70;99.90;;;;;;4955256;28;20027;-87
2020/12/22 12:33:08;;;;;;;26.30;15.85;;;10.20;99.90;;;;;;4955382;28;20050;-87
2020/12/22 12:46:57;;;;;;;22.65;14.95;;;11.80;97.50;;;;;;6129445;23;20025;-84
2020/12/22 12:49:23;;;;;;;24.95;15.90;;;11.40;99.90;;;;;;5025827;28;20129;-88
2020/12/22 12:51:51;;;;;;;23.90;14.15;;;11.00;99.70;;;;;;5013568;28;20053;-86
2020/12/22 12:54:20;;;;;;;24.58;14.27;;;11.00;99.90;;;;;;5012958;28;20048;-87
2020/12/22 12:56:49;;;;;;;22.38;14.45;;;11.20;99.40;;;;;;5009840;28;20022;-88
2020/12/22 12:59:15;;;;;;;23.50;14.40;;;11.20;98.90;;;;;;5013606;28;20104;-86
2020/12/22 13:06:52;;;;;;;23.25;15.15;;;11.10;98.40;;;;;;5128178;22;20046;-81
2020/12/22 13:09:20;;;;;;;26.23;15.05;;;13.10;98.30;;;;;;4999836;28;20033;-82
2020/12/22 13:11:52;;;;;;;25.77;15.68;;;11.50;96.20;;;;;;5007070;28;20014;-94
2020/12/22 13:14:17;;;;;;;23.23;14.60;;;12.80;95.20;;;;;;5010341;28;20373;-89
2020/12/22 13:17:06;;;;;;;24.13;15.65;;;12.00;95.00;;;;;;4988896;28;20738;-86
2020/12/22 13:19:41;;;;;;;26.90;15.77;;;11.10;97.70;;;;;;4979152;28;20031;-87
2020/12/22 13:22:09;;;;;;;23.30;14.18;;;11.20;98.90;;;;;;4983607;28;20048;-87
2020/12/22 13:24:58;;;;;;;25.45;14.85;;;11.20;97.80;;;;;;4981814;28;20413;-87
2020/12/22 13:27:27;;;;;;;24.08;14.45;;;10.60;99.60;;;;;;4963267;28;20089;-86
2020/12/22 13:30:17;;;;;;;25.52;15.25;;;10.20;99.90;;;;;;4999828;28;20027;-88
2020/12/22 13:32:55;;;;;;;22.17;14.57;;;9.90;99.90;;;;;;4988369;28;20053;-92
2020/12/22 13:35:27;;;;;;;26.70;15.07;;;9.70;99.90;;;;;;4988395;28;20352;-89
2020/12/22 13:37:53;;;;;;;29.83;16.08;;;9.70;99.90;;;;;;4983819;28;20390;-86
2020/12/22 13:40:19;;;;;;;25.67;14.90;;;9.70;99.90;;;;;;4986375;28;20481;-87
2020/12/22 13:42:45;;;;;;;23.40;15.30;;;9.50;99.90;;;;;;5004483;28;20021;-86
2020/12/22 13:45:11;;;;;;;31.00;16.17;;;9.40;99.90;;;;;;4999234;28;20494;-90
2020/12/22 13:47:39;;;;;;;31.30;17.02;;;9.40;99.90;;;;;;4994963;28;20026;-86
2020/12/22 13:50:05;;;;;;;30.98;17.73;;;9.50;99.90;;;;;;5000745;23;20046;-86
2020/12/22 13:52:31;;;;;;;34.08;17.67;;;9.50;99.90;;;;;;4996514;28;20017;-86
2020/12/22 13:54:57;;;;;;;32.28;18.58;;;9.50;99.90;;;;;;5013787;28;20068;-84
2020/12/22 13:57:23;;;;;;;35.08;19.40;;;9.50;99.90;;;;;;5013985;28;20026;-84
2020/12/22 13:59:51;;;;;;;33.08;20.38;;;9.20;99.90;;;;;;5013445;28;20017;-84
2020/12/22 14:02:17;;;;;;;37.60;19.98;;;9.20;99.90;;;;;;4996040;28;20045;-81
2020/12/22 14:04:44;;;;;;;36.08;19.50;;;9.20;99.90;;;;;;4996301;28;20034;-86
2020/12/22 14:07:11;;;;;;;31.52;18.52;;;9.00;99.90;;;;;;5014276;28;20017;-86
2020/12/22 14:09:37;;;;;;;30.88;19.25;;;9.10;99.90;;;;;;5013563;28;20022;-88
2020/12/22 14:12:07;;;;;;;36.88;19.58;;;9.10;99.90;;;;;;4996257;28;20363;-83
2020/12/22 14:14:36;;;;;;;33.63;18.73;;;8.90;99.90;;;;;;4995371;28;20500;-87
2020/12/22 14:17:05;;;;;;;29.92;18.40;;;9.00;99.90;;;;;;4990576;28;20655;-85
2020/12/22 14:19:32;;;;;;;31.73;18.65;;;8.90;99.90;;;;;;4975201;28;20081;-87
2020/12/22 14:21:57;;;;;;;32.38;18.88;;;9.00;99.90;;;;;;4973410;28;20034;-85
2020/12/22 14:24:23;;;;;;;34.42;18.85;;;8.90;99.90;;;;;;4981357;28;20365;-85
2020/12/22 14:26:49;;;;;;;31.45;19.38;;;9.00;99.90;;;;;;5106733;23;20525;-86
2020/12/22 14:29:14;;;;;;;34.15;18.95;;;9.10;99.90;;;;;;5015464;28;20064;-84
2020/12/22 14:31:40;;;;;;;35.50;20.25;;;9.00;99.90;;;;;;5015167;28;20025;-85
2020/12/22 14:34:06;;;;;;;32.20;19.42;;;8.90;99.90;;;;;;5015128;28;20045;-86
2020/12/22 14:37:06;;;;;;;36.10;18.52;;;8.90;99.90;;;;;;5014989;28;20030;-85
2020/12/22 14:39:32;;;;;;;34.50;18.80;;;8.80;99.90;;;;;;5031869;28;20546;-84
2020/12/22 14:41:58;;;;;;;30.92;17.80;;;8.90;99.90;;;;;;5014842;28;20088;-84
2020/12/22 14:44:24;;;;;;;32.15;18.50;;;8.90;99.90;;;;;;5015044;28;20021;-86
2020/12/22 14:46:49;;;;;;;36.30;19.95;;;8.80;99.90;;;;;;5014745;28;20037;-81
2020/12/22 14:49:15;;;;;;;32.75;17.95;;;8.70;99.90;;;;;;5022351;28;20543;-81
2020/12/22 14:51:41;;;;;;;31.65;18.27;;;8.70;99.90;;;;;;5025029;28;20025;-82
2020/12/22 14:54:07;;;;;;;31.50;19.80;;;8.60;99.90;;;;;;5014263;28;20495;-85
2020/12/22 14:56:33;;;;;;;32.63;17.95;;;8.70;99.90;;;;;;5032295;28;20044;-81
2020/12/22 14:58:58;;;;;;;33.75;18.17;;;8.60;99.90;;;;;;5031911;28;20022;-85
2020/12/22 15:01:24;;;;;;;40.72;20.13;;;8.50;99.90;;;;;;5014523;28;20044;-86
2020/12/22 15:03:51;;;;;;;36.38;21.58;;;8.50;99.90;;;;;;5011439;28;20104;-85
2020/12/22 15:06:18;;;;;;;35.45;19.98;;;8.40;99.90;;;;;;5013182;28;20573;-86
2020/12/22 15:08:48;;;;;;;38.50;21.17;;;8.30;99.90;;;;;;5011197;28;20022;-86
2020/12/22 15:11:15;;;;;;;34.35;18.35;;;8.30;99.90;;;;;;5010871;28;20045;-84
2020/12/22 15:13:48;;;;;;;36.90;21.35;;;8.10;99.90;;;;;;5010837;28;20399;-84